Time;durP1;ratioP1;P1;durP2;ratioP2;P2;SDS_P1;SDS_P2;PMS_P1;PMS_P2;Temp;Humidity;BMP_temperature;BMP_pressure;BME280_temperature;BME280_humidity;BME280_pressure;Samples;Min_cycle;Max_cycle;Signal;HPM_P1;HPM_P2
2021/12/28 00:02:13;;;;;;;37.25;19.10;;;;;;;2.66;100.00;98290.88;5016562;28;20025;-84
2021/12/28 00:04:38;;;;;;;34.67;19.80;;;;;;;2.65;100.00;98301.47;5015874;28;20022;-84
2021/12/28 00:07:03;;;;;;;40.90;21.02;;;;;;;2.63;100.00;98288.31;5015359;28;20117;-84
2021/12/28 00:09:29;;;;;;;37.10;19.23;;;;;;;2.63;100.00;98287.47;5015669;28;20022;-84
2021/12/28 00:12:02;;;;;;;38.72;20.25;;;;;;;2.64;100.00;98282.16;5016861;28;20397;-84
2021/12/28 00:14:38;;;;;;;39.80;20.40;;;;;;;2.62;100.00;98280.47;5016063;28;20053;-83
2021/12/28 00:20:20;;;;;;;36.58;19.42;;;;;;;2.65;100.00;98285.66;5017028;28;20064;-83
2021/12/28 00:22:54;;;;;;;37.80;20.27;;;;;;;2.67;100.00;98278.56;5015719;28;20049;-84
2021/12/28 00:25:23;;;;;;;;;;;;;;;2.66;100.00;98280.31;5016826;28;20122;-84
2021/12/28 00:28:00;;;;;;;36.85;19.30;;;;;;;2.67;100.00;98281.19;5016044;28;19917;-84
2021/12/28 00:30:56;;;;;;;37.17;18.38;;;;;;;2.69;100.00;98287.28;5015614;28;20032;-82
2021/12/28 00:33:25;;;;;;;39.05;19.20;;;;;;;2.70;100.00;98281.13;5016470;28;20076;-83
2021/12/28 00:36:02;;;;;;;39.75;19.95;;;;;;;2.72;100.00;98292.47;5016895;28;20072;-84
2021/12/28 00:38:34;;;;;;;40.78;21.02;;;;;;;2.75;100.00;98286.25;5016216;28;20051;-84
2021/12/28 00:41:11;;;;;;;35.20;19.08;;;;;;;2.79;100.00;98280.81;5015533;28;20032;-84
2021/12/28 00:43:42;;;;;;;36.22;17.70;;;;;;;2.83;100.00;98272.81;5016221;28;20021;-84
2021/12/28 00:46:18;;;;;;;36.13;18.23;;;;;;;2.83;100.00;98278.97;5014571;28;20034;-84
2021/12/28 00:48:49;;;;;;;34.90;18.55;;;;;;;2.84;100.00;98275.41;5015499;28;20104;-83
2021/12/28 00:51:27;;;;;;;34.92;18.08;;;;;;;2.84;100.00;98283.31;5017141;28;20529;-84
2021/12/28 00:53:52;;;;;;;35.55;18.55;;;;;;;2.87;100.00;98274.44;5027908;22;20129;-74
2021/12/28 00:56:18;;;;;;;32.28;17.67;;;;;;;2.85;100.00;98277.16;5014202;28;20053;-73
2021/12/28 00:58:43;;;;;;;35.85;18.65;;;;;;;2.87;100.00;98279.72;5013242;28;20108;-74
2021/12/28 01:01:09;;;;;;;32.05;17.08;;;;;;;2.86;100.00;98270.09;5012788;28;20037;-73
2021/12/28 01:03:37;;;;;;;33.33;17.90;;;;;;;2.85;100.00;98277.16;5014211;28;20026;-73
2021/12/28 01:06:06;;;;;;;33.72;17.50;;;;;;;2.85;100.00;98274.50;5013973;28;20097;-73
2021/12/28 01:08:32;;;;;;;33.42;17.48;;;;;;;2.87;100.00;98269.16;5013881;28;20039;-73
2021/12/28 01:10:58;;;;;;;32.67;17.98;;;;;;;2.84;100.00;98275.41;5013996;28;20407;-73
2021/12/28 01:13:24;;;;;;;29.95;16.23;;;;;;;2.81;100.00;98278.13;5013877;28;20175;-73
2021/12/28 01:15:51;;;;;;;32.40;18.88;;;;;;;2.78;100.00;98279.09;5013844;28;20069;-73
2021/12/28 01:18:17;;;;;;;32.90;17.85;;;;;;;2.79;100.00;98278.19;5014047;28;20017;-74
2021/12/28 01:20:42;;;;;;;36.38;18.23;;;;;;;2.82;100.00;98276.38;5013716;28;20081;-73
2021/12/28 01:23:09;;;;;;;32.22;17.30;;;;;;;2.93;100.00;98274.28;5013678;28;20033;-73
2021/12/28 01:25:35;;;;;;;35.83;16.45;;;;;;;3.07;100.00;98283.50;5013701;28;20550;-73
2021/12/28 01:28:01;;;;;;;27.30;14.38;;;;;;;3.31;100.00;98273.06;5013586;28;20056;-73
2021/12/28 01:30:28;;;;;;;27.60;14.05;;;;;;;3.46;100.00;98272.56;5013573;28;20053;-73
2021/12/28 01:32:54;;;;;;;27.60;13.00;;;;;;;3.67;100.00;98278.03;5013603;28;20029;-73
2021/12/28 01:35:21;;;;;;;24.55;12.93;;;;;;;3.68;100.00;98266.59;5013576;28;20025;-73
2021/12/28 01:37:47;;;;;;;26.92;12.52;;;;;;;3.74;100.00;98270.75;5013785;28;20462;-73
2021/12/28 01:40:18;;;;;;;23.85;12.18;;;;;;;3.80;100.00;98261.78;5013523;28;20471;-73
2021/12/28 01:43:01;;;;;;;23.13;12.20;;;;;;;3.83;100.00;98263.44;5013518;28;20104;-73
2021/12/28 01:45:38;;;;;;;23.45;12.18;;;;;;;3.84;100.00;98276.59;5013730;28;20022;-73
2021/12/28 01:48:05;;;;;;;23.35;12.15;;;;;;;3.86;100.00;98273.91;5013643;28;20055;-73
2021/12/28 01:50:30;;;;;;;23.48;12.32;;;;;;;3.84;100.00;98271.31;5013337;28;20032;-73
2021/12/28 01:52:56;;;;;;;23.35;12.23;;;;;;;3.86;100.00;98271.28;5013333;28;20022;-73
2021/12/28 01:55:21;;;;;;;22.30;11.77;;;;;;;3.82;100.00;98267.00;5013322;28;20030;-73
2021/12/28 01:57:47;;;;;;;21.48;11.77;;;;;;;3.82;100.00;98265.22;5013627;28;20020;-73
2021/12/28 02:00:13;;;;;;;20.05;10.70;;;;;;;3.78;100.00;98256.56;5013236;28;20026;-73
2021/12/28 02:02:39;;;;;;;21.40;11.50;;;;;;;3.78;100.00;98255.69;5013140;28;20030;-73
2021/12/28 02:05:04;;;;;;;20.98;11.02;;;;;;;3.75;100.00;98258.44;5013830;28;20022;-73
2021/12/28 02:07:30;;;;;;;20.52;10.52;;;;;;;3.71;100.00;98249.75;5013430;28;20024;-73
2021/12/28 02:09:55;;;;;;;22.48;11.27;;;;;;;3.67;100.00;98248.13;5013527;28;20493;-73
2021/12/28 02:12:21;;;;;;;21.63;11.35;;;;;;;3.64;100.00;98251.75;5015971;28;20116;-71
2021/12/28 02:14:47;;;;;;;20.75;11.48;;;;;;;3.57;100.00;98259.03;5017126;28;20060;-71
2021/12/28 02:17:14;;;;;;;25.50;13.45;;;;;;;3.49;100.00;98260.19;5017182;28;20056;-72
2021/12/28 02:19:40;;;;;;;23.20;12.85;;;;;;;3.43;100.00;98263.88;5017005;28;20540;-71
2021/12/28 02:22:05;;;;;;;24.83;13.45;;;;;;;3.36;100.00;98260.59;5015682;28;20124;-71
2021/12/28 02:24:30;;;;;;;23.83;12.90;;;;;;;3.30;100.00;98255.53;5016964;28;20018;-71
2021/12/28 02:26:55;;;;;;;25.88;13.52;;;;;;;3.26;100.00;98259.19;5017082;28;20032;-71
2021/12/28 02:29:21;;;;;;;29.40;14.98;;;;;;;3.20;100.00;98253.19;5016788;28;20137;-71
2021/12/28 02:31:49;;;;;;;25.88;13.77;;;;;;;3.18;100.00;98248.88;5016817;28;20029;-71
2021/12/28 02:34:15;;;;;;;29.58;15.43;;;;;;;3.10;100.00;98244.72;5016790;28;20506;-71
2021/12/28 02:36:40;;;;;;;28.38;15.32;;;;;;;3.08;100.00;98245.69;5017031;28;20022;-71
2021/12/28 02:39:05;;;;;;;29.83;14.70;;;;;;;3.06;100.00;98243.09;5015352;28;20073;-72
2021/12/28 02:41:31;;;;;;;28.60;15.98;;;;;;;3.01;100.00;98248.53;5016969;28;20108;-71
2021/12/28 02:44:03;;;;;;;28.05;14.85;;;;;;;2.99;100.00;98237.16;5016632;28;20033;-71
2021/12/28 02:46:28;;;;;;;29.08;15.00;;;;;;;2.98;100.00;98237.22;5015405;28;20029;-71
2021/12/28 02:48:54;;;;;;;28.65;14.52;;;;;;;2.92;100.00;98230.34;5016402;28;20034;-71
2021/12/28 02:51:19;;;;;;;28.15;15.85;;;;;;;2.90;100.00;98242.72;5016731;28;20029;-71
2021/12/28 02:53:46;;;;;;;29.40;15.52;;;;;;;2.85;100.00;98236.72;5016239;28;20061;-71
2021/12/28 02:56:16;;;;;;;29.45;16.17;;;;;;;2.82;100.00;98228.91;5016372;28;20022;-71
2021/12/28 02:58:45;;;;;;;28.67;16.00;;;;;;;2.77;100.00;98231.69;5016282;28;20025;-71
2021/12/28 03:01:14;;;;;;;31.33;16.27;;;;;;;2.70;100.00;98231.03;5016527;28;20036;-72
2021/12/28 03:03:41;;;;;;;31.17;17.50;;;;;;;2.64;100.00;98225.94;5016263;28;20053;-71
2021/12/28 03:06:10;;;;;;;32.17;17.50;;;;;;;2.60;100.00;98224.31;5015037;28;20029;-71
2021/12/28 03:08:39;;;;;;;31.25;16.65;;;;;;;2.51;100.00;98215.78;5016262;28;20056;-72
2021/12/28 03:11:05;;;;;;;32.22;16.10;;;;;;;2.50;100.00;98216.69;5016311;28;20437;-72
2021/12/28 03:13:38;;;;;;;32.38;16.65;;;;;;;2.46;100.00;98215.06;5014839;28;20018;-71
2021/12/28 03:16:04;;;;;;;27.85;16.00;;;;;;;2.40;100.00;98213.47;5016129;28;20064;-72
2021/12/28 03:18:30;;;;;;;31.55;15.55;;;;;;;2.34;100.00;98214.53;5016207;28;20021;-72
2021/12/28 03:20:56;;;;;;;29.25;15.60;;;;;;;2.32;100.00;98215.50;5015881;28;20052;-72
2021/12/28 03:23:23;;;;;;;34.95;16.75;;;;;;;2.29;100.00;98205.91;5015045;28;20105;-72
2021/12/28 03:25:49;;;;;;;30.80;15.95;;;;;;;2.25;100.00;98219.19;5015879;28;20025;-71
2021/12/28 03:28:22;;;;;;;28.08;15.57;;;;;;;2.19;100.00;98220.25;5014520;28;20549;-71
2021/12/28 03:30:49;;;;;;;27.08;15.23;;;;;;;2.17;100.00;98216.78;5015691;28;20471;-72
2021/12/28 03:33:14;;;;;;;28.13;15.02;;;;;;;2.18;100.00;98210.63;5015684;28;20037;-72
2021/12/28 03:35:40;;;;;;;36.78;16.38;;;;;;;2.23;100.00;98200.81;5015964;28;20030;-71
2021/12/28 03:38:05;;;;;;;29.67;16.02;;;;;;;2.23;100.00;98201.69;5015881;28;20056;-72
2021/12/28 03:40:31;;;;;;;31.50;15.70;;;;;;;2.14;100.00;98204.56;5015542;28;20098;-72
2021/12/28 03:42:56;;;;;;;30.98;16.48;;;;;;;2.11;100.00;98197.63;5015615;28;20483;-71
2021/12/28 03:45:22;;;;;;;29.60;16.05;;;;;;;2.09;100.00;98194.16;5015458;28;20022;-71
2021/12/28 03:47:47;;;;;;;36.80;17.38;;;;;;;2.07;100.00;98182.81;5015313;28;20033;-71
2021/12/28 03:50:14;;;;;;;34.42;16.95;;;;;;;2.11;100.00;98191.50;5015564;28;20021;-72
2021/12/28 03:52:39;;;;;;;40.67;19.35;;;;;;;2.15;100.00;98192.25;5015295;28;20025;-72
2021/12/28 03:55:06;;;;;;;39.80;18.88;;;;;;;2.14;100.00;98187.94;5015169;28;20116;-72
2021/12/28 03:57:31;;;;;;;39.25;18.90;;;;;;;2.10;100.00;98185.38;5015236;28;20037;-71
2021/12/28 03:59:56;;;;;;;39.72;19.63;;;;;;;2.06;100.00;98186.34;5015343;28;20030;-72
2021/12/28 04:02:22;;;;;;;38.67;19.23;;;;;;;2.03;100.00;98178.56;5015436;28;20113;-71
2021/12/28 04:04:47;;;;;;;36.50;19.00;;;;;;;2.00;100.00;98179.53;5015384;28;20026;-71
2021/12/28 04:07:18;;;;;;;37.15;18.05;;;;;;;1.98;100.00;98172.56;5015083;28;20096;-71
2021/12/28 04:12:17;;;;;;;38.15;18.52;;;;;;;1.98;100.00;98167.31;5015335;28;20402;-71
2021/12/28 04:14:42;;;;;;;38.85;18.70;;;;;;;1.97;100.00;98162.94;5013693;28;20030;-71
2021/12/28 04:17:08;;;;;;;37.40;18.30;;;;;;;1.95;100.00;98162.13;5014881;28;20088;-72
2021/12/28 04:19:33;;;;;;;35.47;18.48;;;;;;;1.91;100.00;98166.59;5014774;28;20080;-72
2021/12/28 04:21:58;;;;;;;37.13;19.08;;;;;;;1.91;100.00;98157.88;5014896;28;20022;-72
2021/12/28 04:24:24;;;;;;;39.65;18.52;;;;;;;1.91;100.00;98169.22;5014725;28;20029;-72
2021/12/28 04:26:49;;;;;;;38.88;19.45;;;;;;;1.92;100.00;98170.09;5015015;28;20109;-71
2021/12/28 04:29:14;;;;;;;42.97;19.65;;;;;;;1.95;100.00;98164.75;5014772;28;20034;-72
2021/12/28 04:31:40;;;;;;;37.35;18.38;;;;;;;1.96;100.00;98164.69;5014657;28;20549;-72
2021/12/28 04:34:05;;;;;;;35.28;17.88;;;;;;;1.99;100.00;98161.13;5013324;28;20038;-72
2021/12/28 04:36:30;;;;;;;34.50;17.52;;;;;;;1.88;100.00;98159.66;5014562;28;20057;-71
2021/12/28 04:38:56;;;;;;;34.60;16.85;;;;;;;1.89;100.00;98156.13;5014417;28;20100;-72
2021/12/28 04:41:21;;;;;;;39.40;18.17;;;;;;;1.93;100.00;98148.16;5013196;28;20032;-72
2021/12/28 04:43:48;;;;;;;37.58;18.02;;;;;;;1.98;100.00;98138.34;5014417;28;20021;-72
2021/12/28 04:46:13;;;;;;;44.75;18.83;;;;;;;1.98;100.00;98143.63;5014387;28;20031;-71
2021/12/28 04:48:39;;;;;;;40.65;18.58;;;;;;;1.98;100.00;98147.13;5014230;28;20034;-72
2021/12/28 04:51:04;;;;;;;37.47;18.65;;;;;;;2.00;100.00;98142.66;5014535;28;20030;-72
2021/12/28 04:53:30;;;;;;;42.42;19.48;;;;;;;2.01;100.00;98144.38;5014122;28;20030;-72
2021/12/28 04:55:56;;;;;;;38.17;18.55;;;;;;;2.02;100.00;98139.97;5014277;28;20136;-71
2021/12/28 04:58:21;;;;;;;40.65;19.10;;;;;;;2.05;100.00;98139.03;5012927;28;20120;-71
2021/12/28 05:00:49;;;;;;;37.78;18.33;;;;;;;2.00;100.00;98133.91;5014169;28;20475;-72
2021/12/28 05:03:15;;;;;;;38.13;19.30;;;;;;;2.00;100.00;98133.91;5014072;28;20022;-72
2021/12/28 05:05:43;;;;;;;38.00;18.05;;;;;;;1.99;100.00;98130.41;5012759;28;20029;-71
2021/12/28 05:08:10;;;;;;;41.08;18.55;;;;;;;1.98;100.00;98127.81;5013891;28;20038;-72
2021/12/28 05:10:36;;;;;;;36.65;17.70;;;;;;;1.95;100.00;98128.78;5013879;28;20026;-72
2021/12/28 05:13:02;;;;;;;40.03;18.00;;;;;;;1.97;100.00;98129.59;5013854;28;20113;-72
2021/12/28 05:15:27;;;;;;;38.95;17.92;;;;;;;1.99;100.00;98129.53;5013896;28;20030;-71
2021/12/28 05:17:52;;;;;;;41.83;19.13;;;;;;;2.02;100.00;98129.44;5012556;28;20026;-72
2021/12/28 05:20:17;;;;;;;42.70;19.70;;;;;;;2.07;100.00;98124.91;5013804;28;20100;-72
2021/12/28 05:22:43;;;;;;;41.50;19.65;;;;;;;2.18;100.00;98123.72;5013953;28;20029;-72
2021/12/28 05:25:09;;;;;;;46.53;19.73;;;;;;;2.24;100.00;98136.72;5013784;28;20028;-71
2021/12/28 05:27:35;;;;;;;44.08;20.15;;;;;;;2.27;100.00;98133.97;5012365;28;20379;-71
2021/12/28 05:30:00;;;;;;;45.17;19.67;;;;;;;2.33;100.00;98136.41;5013688;28;20021;-72
2021/12/28 05:32:25;;;;;;;44.47;19.88;;;;;;;2.35;100.00;98136.34;5012344;28;20026;-71
2021/12/28 05:34:51;;;;;;;41.00;19.13;;;;;;;2.38;100.00;98135.41;5013611;28;20080;-71
2021/12/28 05:37:16;;;;;;;41.65;18.55;;;;;;;2.40;100.00;98128.31;5013670;28;20029;-71
2021/12/28 05:39:41;;;;;;;43.60;18.85;;;;;;;2.43;100.00;98131.72;5013531;28;20026;-72
2021/12/28 05:42:07;;;;;;;41.35;18.00;;;;;;;2.45;100.00;98131.66;5013499;28;20071;-72
2021/12/28 05:44:33;;;;;;;37.72;17.42;;;;;;;2.49;100.00;98135.94;5012010;28;20030;-71
2021/12/28 05:46:58;;;;;;;35.75;16.90;;;;;;;2.51;100.00;98127.97;5012159;28;20041;-73
2021/12/28 05:49:24;;;;;;;35.75;16.73;;;;;;;2.50;100.00;98124.47;5012111;28;20025;-72
2021/12/28 05:51:50;;;;;;;36.92;16.23;;;;;;;2.51;100.00;98115.66;5012157;28;20030;-72
2021/12/28 05:54:17;;;;;;;34.53;16.60;;;;;;;2.52;100.00;98117.41;5013393;28;20033;-72
2021/12/28 05:56:43;;;;;;;29.83;15.95;;;;;;;2.50;100.00;98113.94;5013357;28;20022;-71
2021/12/28 05:59:08;;;;;;;33.75;15.70;;;;;;;2.54;100.00;98106.81;5013294;28;20028;-72
2021/12/28 06:01:33;;;;;;;33.92;15.73;;;;;;;2.55;100.00;98106.75;5013603;28;20033;-72
2021/12/28 06:03:59;;;;;;;27.50;13.98;;;;;;;2.48;100.00;98107.84;5013344;28;20364;-71
2021/12/28 06:06:24;;;;;;;28.15;14.02;;;;;;;2.50;100.00;98102.56;5013256;28;20084;-71
2021/12/28 06:08:51;;;;;;;29.40;14.23;;;;;;;2.50;100.00;98103.38;5013090;28;20101;-72
2021/12/28 06:11:17;;;;;;;27.65;13.43;;;;;;;2.51;100.00;98107.75;5013229;28;20036;-71
2021/12/28 06:13:42;;;;;;;29.63;13.93;;;;;;;2.54;100.00;98105.03;5013221;28;20018;-71
2021/12/28 06:16:09;;;;;;;28.88;14.13;;;;;;;2.62;100.00;98107.41;5012028;28;20060;-71
2021/12/28 06:18:34;;;;;;;34.58;14.45;;;;;;;2.65;100.00;98109.09;5013196;28;20029;-72
2021/12/28 06:21:00;;;;;;;30.52;14.00;;;;;;;2.67;100.00;98109.91;5013102;28;20026;-71
2021/12/28 06:23:25;;;;;;;30.40;13.90;;;;;;;2.63;100.00;98103.84;5013156;28;20033;-71
2021/12/28 06:25:51;;;;;;;28.10;13.50;;;;;;;2.65;100.00;98096.78;5013382;28;20387;-71
2021/12/28 06:28:16;;;;;;;32.05;13.85;;;;;;;2.64;100.00;98099.44;5013029;28;20031;-71
2021/12/28 06:30:42;;;;;;;28.88;13.52;;;;;;;2.62;100.00;98096.00;5013015;28;20144;-71
2021/12/28 06:33:07;;;;;;;27.67;13.38;;;;;;;2.58;100.00;98100.50;5013254;28;20029;-71
2021/12/28 06:35:33;;;;;;;27.30;12.20;;;;;;;2.60;100.00;98098.72;5013015;28;20030;-71
2021/12/28 06:37:58;;;;;;;25.58;12.77;;;;;;;2.61;100.00;98102.19;5012904;28;20156;-71
2021/12/28 06:40:24;;;;;;;27.08;12.48;;;;;;;2.62;100.00;98091.63;5012888;28;20030;-71
2021/12/28 06:42:49;;;;;;;31.25;13.00;;;;;;;2.65;100.00;98095.91;5012952;28;20053;-71
2021/12/28 06:45:15;;;;;;;28.48;13.70;;;;;;;2.69;100.00;98087.00;5012907;28;20033;-71
2021/12/28 06:47:40;;;;;;;29.70;13.93;;;;;;;2.72;100.00;98092.16;5012863;28;20021;-71
2021/12/28 06:50:06;;;;;;;32.03;14.73;;;;;;;2.77;100.00;98089.38;5012884;28;20056;-71
2021/12/28 06:52:33;;;;;;;34.15;13.20;;;;;;;2.79;100.00;98083.13;5012816;28;20022;-71
2021/12/28 06:55:32;;;;;;;;;;;;;;;;;;;;;
2021/12/28 06:58:05;;;;;;;36.58;14.65;;;;;;;2.88;100.00;98078.47;5015294;28;20045;-86
2021/12/28 07:00:51;;;;;;;32.08;14.13;;;;;;;2.88;100.00;98068.78;5016914;28;20030;-86
2021/12/28 07:03:19;;;;;;;29.13;14.10;;;;;;;2.94;100.00;98075.59;5032019;28;20053;-85
2021/12/28 07:05:48;;;;;;;30.58;15.35;;;;;;;2.95;100.00;98072.06;5016061;28;20394;-85
2021/12/28 07:08:19;;;;;;;30.02;14.02;;;;;;;2.97;100.00;98069.38;5015423;28;20034;-86
2021/12/28 07:10:48;;;;;;;38.47;15.68;;;;;;;3.03;100.00;98070.94;5015583;28;20121;-86
2021/12/28 07:13:28;;;;;;;33.88;15.52;;;;;;;3.05;100.00;98071.72;5015218;28;20486;-86
2021/12/28 07:16:04;;;;;;;;;;;;;;;;;;;;;
2021/12/28 07:19:13;;;;;;;37.92;15.18;;;;;;;3.08;100.00;98072.50;5016503;28;20018;-88
2021/12/28 07:21:57;;;;;;;31.73;15.18;;;;;;;3.13;100.00;98061.78;4901130;29;20048;-84
2021/12/28 07:24:46;;;;;;;34.85;15.68;;;;;;;3.16;100.00;98063.44;4902144;29;20036;-85
2021/12/28 07:27:23;;;;;;;31.15;15.32;;;;;;;3.16;100.00;98064.31;4993739;28;20026;-85
2021/12/28 07:29:54;;;;;;;31.55;15.35;;;;;;;3.20;100.00;98065.91;5016606;28;20049;-86
2021/12/28 07:32:19;;;;;;;29.00;14.93;;;;;;;3.20;100.00;98062.41;5015836;28;20542;-86
2021/12/28 07:34:53;;;;;;;37.17;15.80;;;;;;;3.23;100.00;98070.22;5016401;28;20081;-85
2021/12/28 07:37:25;;;;;;;31.10;14.88;;;;;;;3.24;100.00;98059.63;5016553;28;20029;-85
2021/12/28 07:40:08;;;;;;;40.25;17.58;;;;;;;3.28;100.00;98062.13;5016641;28;20022;-86
2021/12/28 07:42:43;;;;;;;44.05;16.33;;;;;;;3.33;100.00;98054.94;5018730;28;20144;-86
2021/12/28 07:45:16;;;;;;;38.95;16.42;;;;;;;3.34;100.00;98041.69;5019353;28;20065;-86
2021/12/28 07:48:14;;;;;;;39.83;16.52;;;;;;;3.34;100.00;98046.09;5020524;28;20034;-86
2021/12/28 07:50:53;;;;;;;44.50;17.48;;;;;;;3.37;100.00;98034.59;5008627;28;20351;-86
2021/12/28 07:53:33;;;;;;;45.33;17.58;;;;;;;3.40;100.00;98039.75;5020414;28;20091;-86
2021/12/28 07:56:04;;;;;;;47.40;17.67;;;;;;;3.42;100.00;98037.91;5015570;28;20133;-84
2021/12/28 07:58:39;;;;;;;44.85;17.58;;;;;;;3.40;100.00;98035.31;5015268;28;20029;-85
2021/12/28 08:01:07;;;;;;;43.65;19.25;;;;;;;3.41;100.00;98037.03;5015321;28;20050;-85
2021/12/28 08:06:24;;;;;;;47.70;18.40;;;;;;;3.42;100.00;98033.50;5022425;28;20034;-86
2021/12/28 08:08:53;;;;;;;47.17;18.17;;;;;;;3.45;100.00;98030.72;5024225;28;20057;-86
2021/12/28 08:11:28;;;;;;;47.78;17.92;;;;;;;3.43;100.00;98024.66;5024584;28;20056;-86
2021/12/28 08:13:56;;;;;;;45.67;17.90;;;;;;;3.49;100.00;98030.63;5022115;28;20033;-86
2021/12/28 08:17:07;;;;;;;43.17;17.35;;;;;;;3.54;100.00;98036.59;5019843;28;20026;-85
2021/12/28 08:20:06;;;;;;;46.72;17.58;;;;;;;3.60;100.00;98036.38;5021030;28;20034;-86
2021/12/28 08:22:41;;;;;;;47.17;18.05;;;;;;;3.67;100.00;98024.66;5013143;28;20038;-86
2021/12/28 08:25:54;;;;;;;42.17;17.75;;;;;;;3.74;100.00;98021.75;5017712;28;20454;-85
2021/12/28 08:28:06;;;;;;;46.10;18.65;;;;;;;3.72;100.00;98013.91;5013974;28;20092;-86
2021/12/28 08:30:51;;;;;;;46.28;17.65;;;;;;;3.77;100.00;98022.50;5016814;28;20037;-86
2021/12/28 08:36:22;;;;;;;43.42;18.10;;;;;;;3.88;100.00;98011.53;5015183;28;20032;-85
2021/12/28 08:39:29;;;;;;;45.60;17.40;;;;;;;3.91;100.00;97998.22;5015315;28;20030;-86
2021/12/28 08:42:06;;;;;;;40.25;16.60;;;;;;;3.95;100.00;98000.72;5017646;28;20034;-86
2021/12/28 08:44:41;;;;;;;36.75;16.45;;;;;;;3.93;100.00;98005.19;5016790;28;20044;-86
2021/12/28 08:47:26;;;;;;;39.78;15.82;;;;;;;3.93;100.00;98000.78;5016852;28;20061;-86
2021/12/28 08:50:00;;;;;;;36.90;15.73;;;;;;;3.96;100.00;98002.44;5017024;28;20037;-84
2021/12/28 08:55:42;;;;;;;40.50;15.70;;;;;;;4.00;100.00;98001.41;5017323;28;20091;-85
2021/12/28 08:58:30;;;;;;;35.40;15.27;;;;;;;4.06;100.00;98000.28;5016453;28;20032;-86
2021/12/28 09:01:07;;;;;;;32.53;14.73;;;;;;;4.16;100.00;98000.78;5018114;28;20054;-86
2021/12/28 09:03:38;;;;;;;38.90;15.75;;;;;;;4.25;100.00;97995.13;5016436;28;20018;-85
2021/12/28 09:06:12;;;;;;;34.70;14.80;;;;;;;4.32;100.00;97979.88;5018920;28;20038;-84
2021/12/28 09:08:49;;;;;;;38.95;15.55;;;;;;;4.38;100.00;97984.06;5018225;28;20036;-85
2021/12/28 09:11:24;;;;;;;32.33;14.18;;;;;;;4.43;100.00;97990.00;5014334;28;20128;-84
2021/12/28 09:13:52;;;;;;;31.60;13.80;;;;;;;4.46;100.00;97984.56;5014818;28;20116;-84
2021/12/28 09:16:35;;;;;;;33.30;12.95;;;;;;;4.50;100.00;97990.59;5016730;28;20045;-83
2021/12/28 09:19:34;;;;;;;29.30;13.18;;;;;;;4.60;100.00;97989.28;5018640;28;20025;-83
2021/12/28 09:22:18;;;;;;;;;;;;;;;;;;;;;
2021/12/28 09:24:47;;;;;;;32.15;12.73;;;;;;;4.76;100.00;97980.69;5019071;28;20093;-83
2021/12/28 09:27:17;;;;;;;30.10;13.35;;;;;;;4.84;100.00;97977.72;5019046;28;20076;-85
2021/12/28 09:29:58;;;;;;;26.60;12.98;;;;;;;4.93;100.00;97974.66;5017415;28;20515;-85
2021/12/28 09:32:26;;;;;;;26.25;11.80;;;;;;;4.98;100.00;97972.66;5014972;28;20038;-84
2021/12/28 09:37:58;;;;;;;24.50;11.88;;;;;;;5.11;100.00;97967.69;5016359;28;20168;-83
2021/12/28 09:40:27;;;;;;;30.38;12.07;;;;;;;5.17;100.00;97971.00;5020347;28;20058;-84
2021/12/28 09:42:58;;;;;;;23.38;11.45;;;;;;;5.24;100.00;97972.44;5021504;28;20375;-84
2021/12/28 09:45:24;;;;;;;23.60;10.60;;;;;;;5.35;100.00;97971.94;5021979;28;20094;-85
2021/12/28 09:48:04;;;;;;;21.73;10.30;;;;;;;5.47;100.00;97974.03;5016617;28;20030;-84
2021/12/28 09:50:48;;;;;;;21.73;9.70;;;;;;;5.55;100.00;97971.00;5019307;28;20030;-85
2021/12/28 09:53:20;;;;;;;18.13;9.48;;;;;;;5.64;100.00;97966.22;5024099;28;20040;-85
2021/12/28 09:55:45;;;;;;;20.20;8.38;;;;;;;5.69;100.00;97965.09;5023247;28;20083;-83
2021/12/28 09:58:29;;;;;;;;;;;;;;;;;;;;;
2021/12/28 10:01:12;;;;;;;15.88;7.97;;;;;;;5.99;100.00;97958.38;5022891;28;20113;-86
2021/12/28 10:03:51;;;;;;;10.63;6.35;;;;;;;6.08;100.00;97962.38;5023838;28;20132;-85
2021/12/28 10:06:28;;;;;;;14.13;5.93;;;;;;;6.09;100.00;97956.16;5022319;28;20021;-85
2021/12/28 10:09:23;;;;;;;12.25;7.00;;;;;;;6.10;100.00;97946.41;5021101;28;20026;-83
2021/12/28 10:11:56;;;;;;;12.32;6.32;;;;;;;6.05;100.00;97946.63;5021071;28;20045;-84
2021/12/28 10:14:36;;;;;;;12.93;6.95;;;;;;;6.02;100.00;97957.34;5021441;28;20128;-84
2021/12/28 10:17:25;;;;;;;13.13;6.05;;;;;;;5.97;100.00;97954.06;5021764;28;20029;-84
2021/12/28 10:19:54;;;;;;;10.60;5.60;;;;;;;6.00;100.00;97953.94;5016061;28;20045;-85
2021/12/28 10:22:29;;;;;;;10.40;5.07;;;;;;;6.01;100.00;97945.03;5019955;28;20034;-86
2021/12/28 10:25:23;;;;;;;10.18;5.43;;;;;;;6.11;100.00;97951.63;5015163;28;20120;-85
2021/12/28 10:28:25;;;;;;;10.52;5.10;;;;;;;6.14;100.00;97948.84;5014412;28;20462;-84
2021/12/28 10:31:22;;;;;;;7.50;4.10;;;;;;;6.27;100.00;97948.22;5016088;28;20033;-86
2021/12/28 10:33:57;;;;;;;7.03;3.92;;;;;;;6.32;100.00;97945.31;5021123;28;20025;-84
2021/12/28 10:36:53;;;;;;;6.15;3.45;;;;;;;6.40;100.00;97939.63;5019869;28;20052;-86
2021/12/28 10:39:42;;;;;;;7.25;3.55;;;;;;;6.44;100.00;97926.16;5022860;28;20030;-86
2021/12/28 10:42:41;;;;;;;5.28;2.83;;;;;;;6.48;100.00;97921.56;5021452;28;20077;-85
2021/12/28 10:45:36;;;;;;;6.03;2.88;;;;;;;6.45;100.00;97911.09;5040311;28;20030;-85
2021/12/28 10:48:26;;;;;;;7.47;3.22;;;;;;;6.47;100.00;97915.41;5039194;28;22005;-85
2021/12/28 10:51:53;;;;;;;7.40;2.92;;;;;;;6.55;100.00;97914.13;5018731;28;20498;-85
2021/12/28 10:55:05;;;;;;;;;;;;;;;;;;;;;
2021/12/28 10:58:11;;;;;;;4.72;2.42;;;;;;;6.69;100.00;97902.81;5018203;28;20030;-87
2021/12/28 11:01:31;;;;;;;;;;;;;;;;;;;;;
2021/12/28 11:07:16;;;;;;;4.90;2.75;;;;;;;6.58;100.00;97884.81;5010258;28;20090;-84
2021/12/28 11:09:53;;;;;;;5.97;2.85;;;;;;;6.58;100.00;97876.84;5017216;28;20505;-84
2021/12/28 11:12:21;;;;;;;5.93;2.60;;;;;;;6.59;100.00;97876.81;5019383;28;20030;-84
2021/12/28 11:15:12;;;;;;;7.00;3.08;;;;;;;6.62;100.00;97880.22;5021410;28;20026;-83
2021/12/28 11:17:38;;;;;;;5.47;2.92;;;;;;;6.65;100.00;97880.06;5016355;28;20490;-85
2021/12/28 11:20:03;;;;;;;5.50;2.55;;;;;;;6.64;100.00;97873.03;5024244;28;20025;-85
2021/12/28 11:22:32;;;;;;;5.18;2.75;;;;;;;6.65;100.00;97864.16;5025645;28;20097;-85
2021/12/28 11:24:58;;;;;;;6.15;2.75;;;;;;;6.61;100.00;97854.63;5025819;28;20021;-85
2021/12/28 11:27:30;;;;;;;5.20;2.83;;;;;;;6.57;100.00;97859.25;5027099;28;20022;-85
2021/12/28 11:29:58;;;;;;;4.78;2.80;;;;;;;6.56;100.00;97857.53;5025120;28;20507;-84
2021/12/28 11:32:23;;;;;;;6.10;2.85;;;;;;;6.52;100.00;97843.56;5023685;28;20026;-84
2021/12/28 11:34:52;;;;;;;5.13;2.70;;;;;;;6.57;100.00;97840.69;5025490;28;20034;-84
2021/12/28 11:37:22;;;;;;;4.45;2.30;;;;;;;6.56;100.00;97845.13;5023898;28;20022;-83
2021/12/28 11:39:50;;;;;;;3.95;2.65;;;;;;;6.59;100.00;97837.03;5024706;28;20029;-84
2021/12/28 11:42:17;;;;;;;5.90;2.47;;;;;;;6.62;100.00;97821.88;5021734;28;20026;-83
2021/12/28 11:44:42;;;;;;;4.40;2.45;;;;;;;6.67;100.00;97819.84;5015327;28;20022;-83
2021/12/28 11:47:11;;;;;;;4.10;2.00;;;;;;;6.69;100.00;97824.13;5019744;28;20048;-83
2021/12/28 11:49:38;;;;;;;5.32;1.90;;;;;;;6.74;100.00;97815.91;5019491;28;20399;-84
2021/12/28 11:52:06;;;;;;;5.57;2.50;;;;;;;6.79;100.00;97818.31;5020745;28;20034;-84
2021/12/28 11:54:34;;;;;;;3.17;1.80;;;;;;;6.86;100.00;97814.38;5018187;28;20030;-84
2021/12/28 11:57:10;;;;;;;3.67;1.70;;;;;;;6.93;100.00;97805.13;5018148;28;20549;-83
2021/12/28 11:59:36;;;;;;;4.13;2.00;;;;;;;7.00;100.00;97802.16;5017702;28;20021;-84
2021/12/28 12:02:17;;;;;;;2.95;1.70;;;;;;;7.06;100.00;97796.50;5017654;28;20052;-85
2021/12/28 12:04:51;;;;;;;5.07;1.90;;;;;;;7.14;100.00;97796.06;5020434;28;20022;-84
2021/12/28 12:07:19;;;;;;;2.70;1.63;;;;;;;7.16;100.00;97786.25;5021529;28;20022;-84
2021/12/28 12:10:02;;;;;;;7.35;2.08;;;;;;;7.15;100.00;97782.72;5020976;28;20477;-86